createdAt,value
2022-09-11T00:01:51.523Z,15.10
2022-09-11T00:04:20.609Z,15.15
2022-09-11T00:06:50.268Z,15.21
2022-09-11T00:09:18.757Z,15.28
2022-09-11T00:11:47.361Z,15.34
2022-09-11T00:14:17.517Z,15.29
2022-09-11T00:16:47.731Z,15.24
2022-09-11T00:19:19.332Z,15.30
2022-09-11T00:21:50.089Z,15.35
2022-09-11T00:24:18.867Z,15.32
2022-09-11T00:26:48.010Z,15.29
2022-09-11T00:29:18.538Z,15.23
2022-09-11T00:31:49.348Z,15.24
2022-09-11T00:34:18.104Z,15.16
2022-09-11T00:36:46.758Z,15.11
2022-09-11T00:39:15.538Z,15.01
2022-09-11T00:41:46.449Z,15.11
2022-09-11T00:44:38.237Z,15.17
2022-09-11T00:47:10.468Z,15.23
2022-09-11T00:49:42.466Z,15.16
2022-09-11T00:52:17.181Z,15.25
2022-09-11T00:54:51.217Z,15.26
2022-09-11T00:57:24.312Z,15.25
2022-09-11T00:59:59.118Z,15.20
2022-09-11T01:02:33.123Z,15.23
2022-09-11T01:05:02.351Z,15.31
2022-09-11T01:07:32.521Z,15.33
2022-09-11T01:10:01.390Z,15.41
2022-09-11T01:12:38.229Z,15.46
2022-09-11T01:15:10.559Z,15.56
2022-09-11T01:17:52.880Z,15.57
2022-09-11T01:20:30.518Z,15.53
2022-09-11T01:23:13.018Z,15.57
2022-09-11T01:26:00.142Z,15.50
2022-09-11T01:28:37.990Z,15.48
2022-09-11T01:31:12.345Z,15.44
2022-09-11T01:33:47.260Z,15.46
2022-09-11T01:36:21.077Z,15.47
2022-09-11T01:38:54.671Z,15.47
2022-09-11T01:41:29.312Z,15.52
2022-09-11T01:44:07.663Z,15.55
2022-09-11T01:46:43.054Z,15.53
2022-09-11T01:49:18.432Z,15.43
2022-09-11T01:51:51.274Z,15.42
2022-09-11T01:54:23.810Z,15.53
2022-09-11T01:56:56.814Z,15.58
2022-09-11T01:59:32.943Z,15.63
2022-09-11T02:02:05.411Z,15.61
2022-09-11T02:04:40.174Z,15.59
2022-09-11T02:07:16.410Z,15.60
2022-09-11T02:09:51.492Z,15.61
2022-09-11T02:12:21.871Z,15.70
2022-09-11T02:14:53.752Z,15.75
2022-09-11T02:17:28.670Z,15.79
2022-09-11T02:20:00.689Z,15.84
2022-09-11T02:22:29.677Z,15.89
2022-09-11T02:25:02.946Z,15.87
2022-09-11T02:27:32.652Z,15.82
2022-09-11T02:30:03.944Z,15.80
2022-09-11T02:32:37.880Z,15.86
2022-09-11T02:35:08.292Z,15.96
2022-09-11T02:37:48.591Z,16.03
2022-09-11T02:40:42.071Z,16.10
2022-09-11T02:43:35.013Z,16.16
2022-09-11T02:46:34.834Z,16.18
2022-09-11T02:49:12.790Z,16.21
2022-09-11T02:51:50.784Z,16.16
2022-09-11T02:54:27.252Z,16.09
2022-09-11T02:57:06.323Z,16.05
2022-09-11T02:59:41.569Z,16.08
2022-09-11T03:02:15.937Z,15.97
2022-09-11T03:04:45.803Z,15.90
2022-09-11T03:07:14.141Z,15.90
2022-09-11T03:09:43.416Z,15.92
2022-09-11T03:12:19.053Z,15.95
2022-09-11T03:14:50.899Z,16.00
2022-09-11T03:17:22.222Z,16.06
2022-09-11T03:19:51.012Z,16.03
2022-09-11T03:22:21.004Z,16.06
2022-09-11T03:24:49.835Z,16.07
2022-09-11T03:27:19.052Z,16.01
2022-09-11T03:29:48.420Z,16.05
2022-09-11T03:32:17.479Z,16.10
2022-09-11T03:34:48.151Z,16.10
2022-09-11T03:37:18.641Z,15.99
2022-09-11T03:39:49.659Z,15.94
2022-09-11T03:42:18.064Z,15.93
2022-09-11T03:44:46.849Z,15.92
2022-09-11T03:47:15.739Z,15.94
2022-09-11T03:49:44.320Z,15.96
2022-09-11T03:52:14.771Z,15.99
2022-09-11T03:54:43.371Z,15.99
2022-09-11T03:57:13.263Z,16.01
2022-09-11T03:59:41.933Z,16.00
2022-09-11T04:02:10.753Z,16.02
2022-09-11T04:04:39.551Z,16.05
2022-09-11T04:07:08.194Z,16.09
2022-09-11T04:09:38.271Z,16.07
2022-09-11T04:12:08.293Z,16.08
2022-09-11T04:14:36.999Z,16.10
2022-09-11T04:17:08.510Z,16.12
2022-09-11T04:19:40.181Z,16.15
2022-09-11T04:22:09.333Z,16.18
2022-09-11T04:24:42.902Z,16.16
2022-09-11T04:27:13.350Z,16.15
2022-09-11T04:29:43.233Z,16.19
2022-09-11T04:32:12.032Z,16.23
2022-09-11T04:34:41.810Z,16.28
2022-09-11T04:37:12.009Z,16.32
2022-09-11T04:39:43.191Z,16.33
2022-09-11T04:42:11.973Z,16.36
2022-09-11T04:44:41.382Z,16.40
2022-09-11T04:47:10.821Z,16.41
2022-09-11T04:49:41.265Z,16.41
2022-09-11T04:52:12.225Z,16.46
2022-09-11T04:54:42.352Z,16.47
2022-09-11T04:57:12.523Z,16.51
2022-09-11T04:59:41.130Z,16.53
2022-09-11T05:02:13.903Z,16.59
2022-09-11T05:04:46.932Z,16.61
2022-09-11T05:07:15.611Z,16.62
2022-09-11T05:09:49.639Z,16.63
2022-09-11T05:12:20.773Z,16.63
2022-09-11T05:14:49.471Z,16.65
2022-09-11T05:17:18.524Z,16.70
2022-09-11T05:19:47.413Z,16.71
2022-09-11T05:22:16.061Z,16.78
2022-09-11T05:24:52.779Z,16.81
2022-09-11T05:27:21.532Z,16.86
2022-09-11T05:29:51.043Z,16.87
2022-09-11T05:32:19.842Z,16.94
2022-09-11T05:34:48.496Z,17.04
2022-09-11T05:37:18.720Z,17.17
2022-09-11T05:39:49.961Z,17.30
2022-09-11T05:42:22.103Z,17.37
2022-09-11T05:44:55.030Z,17.35
2022-09-11T05:47:26.594Z,17.37
2022-09-11T05:49:57.909Z,17.33
2022-09-11T05:52:28.327Z,17.31
2022-09-11T05:54:57.005Z,17.34
2022-09-11T05:57:28.573Z,17.37
2022-09-11T05:59:57.162Z,17.38
2022-09-11T06:02:25.857Z,17.39
2022-09-11T06:04:56.708Z,17.41
2022-09-11T06:07:26.976Z,17.43
2022-09-11T06:09:59.693Z,17.48
2022-09-11T06:12:33.634Z,17.49
2022-09-11T06:15:02.694Z,17.48
2022-09-11T06:17:32.621Z,17.52
2022-09-11T06:20:02.253Z,17.55
2022-09-11T06:22:33.821Z,17.52
2022-09-11T06:25:02.611Z,17.47
2022-09-11T06:27:31.378Z,17.43
2022-09-11T06:30:01.592Z,17.50
2022-09-11T06:32:36.732Z,17.52
2022-09-11T06:35:07.354Z,17.60
2022-09-11T06:37:37.133Z,17.65
2022-09-11T06:40:06.751Z,17.68
2022-09-11T06:42:37.263Z,17.69
2022-09-11T06:45:08.831Z,17.70
2022-09-11T06:47:37.609Z,17.74
2022-09-11T06:50:07.202Z,17.80
2022-09-11T06:52:59.303Z,17.81
2022-09-11T06:55:32.241Z,17.86
2022-09-11T06:58:08.698Z,17.86
2022-09-11T07:00:41.126Z,17.89
2022-09-11T07:03:13.563Z,17.89
2022-09-11T07:05:47.095Z,17.90
2022-09-11T07:08:16.187Z,17.90
2022-09-11T07:10:45.525Z,17.84
2022-09-11T07:13:15.296Z,17.82
2022-09-11T07:15:45.226Z,17.85
2022-09-11T07:18:13.814Z,17.90
2022-09-11T07:20:42.675Z,17.95
2022-09-11T07:23:12.765Z,17.99
2022-09-11T07:25:43.691Z,18.05
2022-09-11T07:28:12.675Z,18.05
2022-09-11T07:30:41.925Z,18.08
2022-09-11T07:33:12.388Z,18.12
2022-09-11T07:35:42.455Z,18.17
2022-09-11T07:38:11.187Z,18.18
2022-09-11T07:40:41.646Z,18.19
2022-09-11T07:43:10.737Z,18.19
2022-09-11T07:45:39.186Z,18.21
2022-09-11T07:48:08.117Z,18.24
2022-09-11T07:50:37.997Z,18.24
2022-09-11T07:53:07.354Z,18.33
2022-09-11T07:55:37.368Z,18.37
2022-09-11T07:58:06.228Z,18.45
2022-09-11T08:00:37.182Z,18.53
2022-09-11T08:03:15.786Z,18.54
2022-09-11T08:05:46.287Z,18.57
2022-09-11T08:08:15.076Z,18.62
2022-09-11T08:10:43.938Z,18.72
2022-09-11T08:13:12.784Z,18.74
2022-09-11T08:15:48.253Z,18.83
2022-09-11T08:18:17.347Z,18.70
2022-09-11T08:20:47.448Z,18.74
2022-09-11T08:23:16.694Z,18.86
2022-09-11T08:25:45.924Z,18.96
2022-09-11T08:28:16.078Z,19.01
2022-09-11T08:30:44.977Z,19.07
2022-09-11T08:33:14.437Z,19.08
2022-09-11T08:35:43.592Z,19.11
2022-09-11T08:38:14.291Z,19.15
2022-09-11T08:40:43.289Z,19.14
2022-09-11T08:43:22.275Z,19.14
2022-09-11T08:45:57.342Z,19.13
2022-09-11T08:48:34.007Z,19.15
2022-09-11T08:51:02.989Z,19.34
2022-09-11T08:53:35.745Z,19.55
2022-09-11T08:56:11.759Z,19.76
2022-09-11T08:58:50.549Z,19.95
2022-09-11T09:01:27.929Z,20.06
2022-09-11T09:04:21.427Z,20.09
2022-09-11T09:07:04.639Z,20.08
2022-09-11T09:09:44.517Z,20.05
2022-09-11T09:12:22.820Z,20.36
2022-09-11T09:15:18.018Z,20.69
2022-09-11T09:17:51.482Z,20.83
2022-09-11T09:20:23.287Z,20.71
2022-09-11T09:22:57.368Z,20.44
2022-09-11T09:25:35.698Z,20.23
2022-09-11T09:28:12.657Z,20.08
2022-09-11T09:30:51.067Z,19.99
2022-09-11T09:33:35.113Z,19.94
2022-09-11T09:36:17.211Z,19.89
2022-09-11T09:38:47.440Z,20.04
2022-09-11T09:41:41.658Z,20.29
2022-09-11T09:44:22.929Z,20.69
2022-09-11T09:46:55.911Z,20.95
2022-09-11T09:49:29.258Z,21.01
2022-09-11T09:52:04.110Z,20.99
2022-09-11T09:54:36.802Z,20.88
2022-09-11T09:57:10.822Z,20.87
2022-09-11T09:59:44.784Z,20.90
2022-09-11T10:02:13.729Z,20.91
2022-09-11T10:04:42.359Z,21.00
2022-09-11T10:07:14.630Z,21.03
2022-09-11T10:09:48.816Z,21.01
2022-09-11T10:12:24.580Z,20.89
2022-09-11T10:14:57.711Z,20.86
2022-09-11T10:17:33.710Z,20.80
2022-09-11T10:20:23.210Z,20.75
2022-09-11T10:22:52.131Z,20.57
2022-09-11T10:25:23.315Z,20.49
2022-09-11T10:28:02.160Z,20.48
2022-09-11T10:30:34.423Z,20.51
2022-09-11T10:33:06.961Z,20.91
2022-09-11T10:35:37.993Z,21.26
2022-09-11T10:38:18.286Z,21.67
2022-09-11T10:41:08.245Z,22.01
2022-09-11T10:43:50.818Z,22.07
2022-09-11T10:46:40.113Z,22.28
2022-09-11T10:49:11.095Z,22.63
2022-09-11T10:51:45.532Z,22.91
2022-09-11T10:54:33.625Z,23.03
2022-09-11T10:57:13.664Z,23.02
2022-09-11T10:59:55.865Z,22.77
2022-09-11T11:02:31.908Z,22.67
2022-09-11T11:05:05.233Z,22.84
2022-09-11T11:07:51.666Z,22.76
2022-09-11T11:10:33.614Z,22.50
2022-09-11T11:13:16.170Z,22.31
2022-09-11T11:16:02.159Z,22.17
2022-09-11T11:18:42.143Z,22.27
2022-09-11T11:21:25.627Z,22.29
2022-09-11T11:24:17.967Z,22.36
2022-09-11T11:27:09.015Z,22.43
2022-09-11T11:30:02.773Z,21.96
2022-09-11T11:32:56.724Z,21.61
2022-09-11T11:35:30.596Z,21.40
2022-09-11T11:38:11.007Z,21.30
2022-09-11T11:40:46.435Z,21.32
2022-09-11T11:43:17.818Z,21.60
2022-09-11T11:45:52.628Z,21.76
2022-09-11T11:48:32.486Z,22.02
2022-09-11T11:51:06.689Z,22.48
2022-09-11T11:53:40.645Z,22.66
2022-09-11T11:56:16.521Z,22.88
2022-09-11T11:58:51.636Z,22.93
2022-09-11T12:01:25.936Z,23.19
2022-09-11T12:04:03.085Z,23.37
2022-09-11T12:06:31.805Z,23.65
2022-09-11T12:09:00.767Z,23.73
2022-09-11T12:11:33.177Z,23.84
2022-09-11T12:14:03.311Z,23.90
2022-09-11T12:16:35.020Z,24.05
2022-09-11T12:19:17.798Z,23.99
2022-09-11T12:22:07.600Z,23.88
2022-09-11T12:24:59.429Z,23.72
2022-09-11T12:27:53.630Z,23.86
2022-09-11T12:30:25.869Z,24.12
2022-09-11T12:32:56.078Z,23.90
2022-09-11T12:35:38.608Z,23.53
2022-09-11T12:38:20.388Z,23.27
2022-09-11T12:40:55.458Z,23.01
2022-09-11T12:43:47.733Z,22.69
2022-09-11T12:46:43.490Z,22.44
2022-09-11T12:49:28.540Z,22.35
2022-09-11T12:52:02.333Z,22.08
2022-09-11T12:54:34.835Z,21.79
2022-09-11T12:57:07.140Z,21.54
2022-09-11T12:59:39.539Z,21.38
2022-09-11T13:02:27.327Z,21.25
2022-09-11T13:04:58.732Z,21.22
2022-09-11T13:07:36.341Z,21.22
2022-09-11T13:10:09.565Z,21.16
2022-09-11T13:12:52.980Z,21.27
2022-09-11T13:15:34.920Z,21.62
2022-09-11T13:18:16.733Z,21.82
2022-09-11T13:20:59.675Z,22.23
2022-09-11T13:23:32.959Z,22.57
2022-09-11T13:26:03.761Z,22.70
2022-09-11T13:28:36.721Z,22.82
2022-09-11T13:31:05.538Z,22.93
2022-09-11T13:33:34.344Z,22.81
2022-09-11T13:36:08.613Z,22.81
2022-09-11T13:38:39.542Z,23.02
2022-09-11T13:41:15.190Z,23.04
2022-09-11T13:43:48.081Z,23.05
2022-09-11T13:46:24.896Z,23.21
2022-09-11T13:48:59.618Z,23.27
2022-09-11T13:51:31.778Z,23.47
2022-09-11T13:54:12.063Z,23.58
2022-09-11T13:56:47.615Z,23.70
2022-09-11T13:59:28.853Z,23.65
2022-09-11T14:02:01.001Z,23.44
2022-09-11T14:04:30.399Z,23.15
2022-09-11T14:06:59.044Z,22.99
2022-09-11T14:09:29.243Z,22.88
2022-09-11T14:12:03.784Z,22.72
2022-09-11T14:14:34.349Z,22.61
2022-09-11T14:17:03.159Z,22.53
2022-09-11T14:19:35.122Z,22.45
2022-09-11T14:22:17.882Z,22.41
2022-09-11T14:24:57.549Z,22.43
2022-09-11T14:27:39.154Z,22.53
2022-09-11T14:30:30.662Z,22.56
2022-09-11T14:33:18.140Z,22.60
2022-09-11T14:35:50.553Z,22.64
2022-09-11T14:38:22.190Z,22.63
2022-09-11T14:40:58.112Z,22.55
2022-09-11T14:43:33.107Z,22.48
2022-09-11T14:46:03.308Z,22.39
2022-09-11T14:48:33.417Z,22.31
2022-09-11T14:51:10.062Z,22.22
2022-09-11T14:53:43.669Z,22.08
2022-09-11T14:56:14.392Z,22.01
2022-09-11T14:58:43.152Z,21.90
2022-09-11T15:01:15.627Z,21.78
2022-09-11T15:03:44.986Z,21.67
2022-09-11T15:06:20.889Z,21.52
2022-09-11T15:08:49.804Z,21.31
2022-09-11T15:11:19.794Z,21.08
2022-09-11T15:14:13.265Z,20.96
2022-09-11T15:16:37.757Z,20.91
2022-09-11T15:19:06.433Z,20.81
2022-09-11T15:21:37.576Z,20.74
2022-09-11T15:24:07.391Z,20.68
2022-09-11T15:26:37.509Z,20.64
2022-09-11T15:29:10.142Z,20.59
2022-09-11T15:31:38.953Z,20.48
2022-09-11T15:34:08.565Z,20.38
2022-09-11T15:36:38.693Z,20.31
2022-09-11T15:39:07.644Z,20.28
2022-09-11T15:41:37.983Z,20.23
2022-09-11T15:44:11.194Z,20.14
2022-09-11T15:46:40.370Z,20.08
2022-09-11T15:49:09.040Z,19.95
2022-09-11T15:51:39.157Z,19.81
2022-09-11T15:54:08.024Z,19.76
2022-09-11T15:56:38.913Z,19.74
2022-09-11T15:59:07.512Z,19.67
2022-09-11T16:01:37.800Z,19.62
2022-09-11T16:04:08.402Z,19.55
2022-09-11T16:06:40.101Z,19.47
2022-09-11T16:09:13.297Z,19.38
2022-09-11T16:11:44.341Z,19.33
2022-09-11T16:14:19.211Z,19.32
2022-09-11T16:16:48.569Z,19.32
2022-09-11T16:19:17.683Z,19.31
2022-09-11T16:21:46.520Z,19.32
2022-09-11T16:24:15.685Z,19.31
2022-09-11T16:26:46.165Z,19.33
2022-09-11T16:29:18.215Z,19.28
2022-09-11T16:31:47.123Z,19.26
2022-09-11T16:34:18.256Z,19.23
2022-09-11T16:36:49.327Z,19.21
2022-09-11T16:39:20.687Z,19.12
2022-09-11T16:41:50.865Z,19.01
2022-09-11T16:44:20.009Z,18.90
2022-09-11T16:46:49.086Z,18.84
2022-09-11T16:49:20.537Z,18.78
2022-09-11T16:51:49.276Z,18.70
2022-09-11T16:54:18.229Z,18.61
2022-09-11T16:56:47.049Z,18.54
2022-09-11T16:59:17.178Z,18.40
2022-09-11T17:01:46.544Z,18.30
2022-09-11T17:04:15.197Z,18.30
2022-09-11T17:06:44.015Z,18.23
2022-09-11T17:09:12.637Z,18.21
2022-09-11T17:11:42.198Z,18.09
2022-09-11T17:14:11.607Z,17.96
2022-09-11T17:16:41.948Z,17.93
2022-09-11T17:19:11.150Z,17.90
2022-09-11T17:21:39.950Z,17.78
2022-09-11T17:24:09.385Z,17.76
2022-09-11T17:26:38.159Z,17.72
2022-09-11T17:29:07.858Z,17.69
2022-09-11T17:31:37.010Z,17.62
2022-09-11T17:34:07.120Z,17.59
2022-09-11T17:36:35.927Z,17.52
2022-09-11T17:39:05.689Z,17.43
2022-09-11T17:41:34.808Z,17.42
2022-09-11T17:44:03.529Z,17.40
2022-09-11T17:46:32.382Z,17.40
2022-09-11T17:49:02.644Z,17.35
2022-09-11T17:51:32.788Z,17.30
2022-09-11T17:54:01.482Z,17.33
2022-09-11T17:56:32.291Z,17.30
2022-09-11T17:59:02.059Z,17.34
2022-09-11T18:01:31.748Z,17.31
2022-09-11T18:04:00.930Z,17.31
2022-09-11T18:06:32.897Z,17.34
2022-09-11T18:09:12.188Z,17.37
2022-09-11T18:11:41.256Z,17.43
2022-09-11T18:14:09.908Z,17.46
2022-09-11T18:16:39.594Z,17.42
2022-09-11T18:19:08.450Z,17.39
2022-09-11T18:21:38.404Z,17.37
2022-09-11T18:24:09.972Z,17.33
2022-09-11T18:26:41.162Z,17.32
2022-09-11T18:29:13.940Z,17.31
2022-09-11T18:31:44.651Z,17.35
2022-09-11T18:34:15.495Z,17.38
2022-09-11T18:36:45.400Z,17.34
2022-09-11T18:39:18.001Z,17.37
2022-09-11T18:41:47.741Z,17.40
2022-09-11T18:44:19.914Z,17.38
2022-09-11T18:46:53.433Z,17.33
2022-09-11T18:49:22.928Z,17.28
2022-09-11T18:51:52.095Z,17.30
2022-09-11T18:54:23.432Z,17.31
2022-09-11T18:56:52.481Z,17.24
2022-09-11T18:59:21.516Z,17.19
2022-09-11T19:01:50.476Z,17.12
2022-09-11T19:04:20.642Z,17.12
2022-09-11T19:06:49.681Z,17.14
2022-09-11T19:09:18.564Z,17.21
2022-09-11T19:11:48.702Z,17.26
2022-09-11T19:14:18.051Z,17.32
2022-09-11T19:16:49.029Z,17.37
2022-09-11T19:19:18.014Z,17.35
2022-09-11T19:21:49.056Z,17.35
2022-09-11T19:24:21.092Z,17.38
2022-09-11T19:26:54.336Z,17.36
2022-09-11T19:29:23.323Z,17.31
2022-09-11T19:31:52.971Z,17.29
2022-09-11T19:34:22.942Z,17.26
2022-09-11T19:36:53.244Z,17.38
2022-09-11T19:39:22.792Z,17.40
2022-09-11T19:41:52.867Z,17.43
2022-09-11T19:44:21.674Z,17.48
2022-09-11T19:46:53.817Z,17.47
2022-09-11T19:49:22.454Z,17.46
2022-09-11T19:51:53.767Z,17.47
2022-09-11T19:54:23.346Z,17.48
2022-09-11T19:56:53.182Z,17.50
2022-09-11T19:59:21.435Z,17.53
2022-09-11T20:01:50.258Z,17.51
2022-09-11T20:04:19.285Z,17.51
2022-09-11T20:09:32.038Z,17.48
2022-09-11T20:12:02.956Z,17.46
2022-09-11T20:14:31.949Z,17.42
2022-09-11T20:17:01.197Z,17.40
2022-09-11T20:19:30.125Z,17.33
2022-09-11T20:22:00.475Z,17.27
2022-09-11T20:24:29.659Z,17.27
2022-09-11T20:27:00.311Z,17.25
2022-09-11T20:29:31.067Z,17.23
2022-09-11T20:32:00.666Z,17.20
2022-09-11T20:34:29.006Z,17.17
2022-09-11T20:37:00.880Z,17.14
2022-09-11T20:39:29.725Z,17.13
2022-09-11T20:42:00.414Z,17.07
2022-09-11T20:44:34.916Z,17.04
2022-09-11T20:47:05.766Z,17.04
2022-09-11T20:49:34.586Z,17.05
2022-09-11T20:52:04.125Z,17.03
2022-09-11T20:54:32.788Z,17.04
2022-09-11T20:57:01.370Z,17.05
2022-09-11T20:59:31.290Z,17.04
2022-09-11T21:02:00.698Z,17.03
2022-09-11T21:04:29.306Z,17.04
2022-09-11T21:06:57.983Z,17.04
2022-09-11T21:09:26.681Z,16.99
2022-09-11T21:11:55.389Z,16.96
2022-09-11T21:14:24.130Z,16.98
2022-09-11T21:16:55.072Z,17.01
2022-09-11T21:19:23.630Z,16.99
2022-09-11T21:21:52.413Z,17.00
2022-09-11T21:24:21.100Z,16.96
2022-09-11T21:26:49.821Z,16.97
2022-09-11T21:29:18.641Z,16.97
2022-09-11T21:31:47.252Z,16.97
2022-09-11T21:34:17.923Z,16.95
2022-09-11T21:36:47.398Z,16.93
2022-09-11T21:39:16.140Z,16.92
2022-09-11T21:41:44.907Z,16.88
2022-09-11T21:44:13.481Z,16.86
2022-09-11T21:46:42.244Z,16.88
2022-09-11T21:49:11.693Z,16.86
2022-09-11T21:51:42.023Z,16.84
2022-09-11T21:54:10.686Z,16.79
2022-09-11T21:56:39.251Z,16.73
2022-09-11T21:59:08.020Z,16.69
2022-09-11T22:01:37.144Z,16.67
2022-09-11T22:04:05.931Z,16.63
2022-09-11T22:06:34.627Z,16.61
2022-09-11T22:09:04.689Z,16.62
2022-09-11T22:11:33.549Z,16.63
2022-09-11T22:14:02.133Z,16.59
2022-09-11T22:16:30.865Z,16.58
2022-09-11T22:18:59.489Z,16.58
2022-09-11T22:21:28.130Z,16.57
2022-09-11T22:23:57.604Z,16.54
2022-09-11T22:26:30.321Z,16.54
2022-09-11T22:28:59.502Z,16.56
2022-09-11T22:31:29.364Z,16.56
2022-09-11T22:33:58.262Z,16.55
2022-09-11T22:36:28.803Z,16.56
2022-09-11T22:38:58.080Z,16.57
2022-09-11T22:41:28.810Z,16.59
2022-09-11T22:43:57.602Z,16.59
2022-09-11T22:46:27.221Z,16.58
2022-09-11T22:48:57.467Z,16.59
2022-09-11T22:51:26.509Z,16.63
2022-09-11T22:53:55.302Z,16.63
2022-09-11T22:56:24.033Z,16.60
2022-09-11T22:58:55.091Z,16.53
2022-09-11T23:01:24.482Z,16.51
2022-09-11T23:03:54.015Z,16.44
2022-09-11T23:06:33.030Z,16.36
2022-09-11T23:09:01.998Z,16.25
2022-09-11T23:11:30.507Z,16.17
2022-09-11T23:14:00.743Z,16.08
2022-09-11T23:16:31.394Z,16.09
2022-09-11T23:19:01.780Z,16.07
2022-09-11T23:21:32.972Z,16.06
2022-09-11T23:24:02.251Z,16.05
2022-09-11T23:26:31.178Z,15.87
2022-09-11T23:29:01.433Z,15.81
2022-09-11T23:31:32.526Z,15.76
2022-09-11T23:34:03.030Z,15.65
2022-09-11T23:36:32.434Z,15.54
2022-09-11T23:39:01.401Z,15.46
2022-09-11T23:41:32.202Z,15.33
2022-09-11T23:44:04.042Z,15.20
2022-09-11T23:46:33.877Z,15.17
2022-09-11T23:49:02.535Z,15.12
2022-09-11T23:51:31.161Z,15.13
2022-09-11T23:53:59.902Z,15.14
2022-09-11T23:56:28.624Z,15.19
2022-09-11T23:58:57.436Z,15.17
